Iona, Idaho
Current Conditions -  °F | °C
As of 2:53 PM on Sunday 25 Jan 2015 (Local Time) from KIDA Reporting Station
Haze Haze  
Wind Chill: 25°   Ceiling: 400
Heat Index: 31°   Visibility: 3mi
Dew Point: 29°   Wind: 6mph
Humidity: 92%   Direction: 350°N
Pressure: 30.45"   Gusts: NA
Location:  43.53°N, 111.93°W
Report Text: KIDA 252153Z 35005KT 3SM BR OVC004 M01/M02 A3045 RMK AO2 SLP343 T10061017
Loading
Personal Weather Stations






























Interactive Weather Map New forecast layout! Learn more

10-Day Weather Forecast

Advertisements
Track Severe Weather on mobile